Time;durP1;ratioP1;P1;durP2;ratioP2;P2;SDS_P1;SDS_P2;PMS_P1;PMS_P2;Temp;Humidity;BMP_temperature;BMP_pressure;BME280_temperature;BME280_humidity;BME280_pressure;Samples;Min_cycle;Max_cycle;Signal;HPM_P1;HPM_P2
2023/03/14 00:00:13;;;;;;;5.55;1.70;;;;;;;9.99;100.00;98383.28;698321;28;896;-63
2023/03/14 00:00:34;;;;;;;5.80;1.90;;;;;;;9.95;100.00;98370.41;694858;28;1558;-64
2023/03/14 00:00:54;;;;;;;5.45;1.80;;;;;;;9.91;100.00;98384.50;694425;28;4275;-63
2023/03/14 00:01:17;;;;;;;5.63;1.80;;;;;;;9.88;100.00;98375.88;695053;28;1279;-64
2023/03/14 00:01:37;;;;;;;5.80;1.90;;;;;;;9.98;100.00;98371.16;694800;28;978;-63
2023/03/14 00:01:58;;;;;;;5.20;1.40;;;;;;;9.97;100.00;98368.56;696918;28;861;-65
2023/03/14 00:02:19;;;;;;;4.68;1.60;;;;;;;9.93;100.00;98367.00;695526;28;797;-63
2023/03/14 00:02:39;;;;;;;6.03;2.03;;;;;;;9.89;100.00;98358.47;697362;28;896;-64
2023/03/14 00:03:00;;;;;;;6.30;2.30;;;;;;;9.87;100.00;98362.88;697369;28;1053;-64
2023/03/14 00:03:20;;;;;;;5.43;2.10;;;;;;;9.84;100.00;98357.78;697503;28;873;-64
2023/03/14 00:03:41;;;;;;;6.57;1.95;;;;;;;9.82;100.00;98352.63;698421;28;4744;-64
2023/03/14 00:04:04;;;;;;;5.25;1.90;;;;;;;9.82;100.00;98351.78;699961;28;897;-64
2023/03/14 00:04:24;;;;;;;5.57;1.77;;;;;;;9.80;100.00;98350.97;702362;28;1026;-64
2023/03/14 00:04:45;;;;;;;5.45;2.00;;;;;;;9.78;100.00;98344.97;699552;28;2151;-64
2023/03/14 00:05:06;;;;;;;4.87;1.90;;;;;;;9.78;100.00;98343.22;699721;28;2275;-64
2023/03/14 00:05:27;;;;;;;4.82;1.80;;;;;;;9.78;100.00;98340.59;699772;28;1232;-64
2023/03/14 00:05:47;;;;;;;5.63;1.73;;;;;;;9.77;100.00;98340.66;694677;28;1616;-64
2023/03/14 00:06:09;;;;;;;4.83;1.60;;;;;;;9.75;100.00;98338.13;692688;28;1426;-64
2023/03/14 00:06:31;;;;;;;5.70;1.80;;;;;;;9.74;100.00;98339.00;693345;28;1023;-64
2023/03/14 00:06:51;;;;;;;5.20;1.80;;;;;;;9.73;100.00;98342.53;692480;28;4340;-63
2023/03/14 00:07:12;;;;;;;5.07;1.70;;;;;;;9.73;100.00;98339.91;693243;28;1345;-64
2023/03/14 00:07:37;;;;;;;4.43;1.50;;;;;;;9.75;100.00;98338.13;696041;28;967;-64
2023/03/14 00:07:57;;;;;;;5.47;1.70;;;;;;;9.77;100.00;98338.88;700651;28;864;-64
2023/03/14 00:08:19;;;;;;;3.90;1.60;;;;;;;9.75;100.00;98345.94;702913;28;1094;-64
2023/03/14 00:08:41;;;;;;;4.25;1.63;;;;;;;9.82;100.00;98342.19;701895;28;1711;-63
2023/03/14 00:09:01;;;;;;;4.75;1.83;;;;;;;9.85;100.00;98343.81;701545;28;904;-64
2023/03/14 00:09:21;;;;;;;4.43;1.87;;;;;;;9.92;100.00;98340.06;698665;28;1402;-64
2023/03/14 00:09:42;;;;;;;4.53;1.58;;;;;;;9.96;100.00;98338.19;698281;28;4869;-65
2023/03/14 00:10:12;;;;;;;5.53;1.77;;;;;;;9.89;100.00;98338.41;699970;28;777;-64
2023/03/14 00:10:32;;;;;;;4.20;1.58;;;;;;;9.92;100.00;98339.22;697425;28;975;-63
2023/03/14 00:10:52;;;;;;;4.80;1.40;;;;;;;9.90;100.00;98347.13;694978;28;963;-64
2023/03/14 00:11:19;;;;;;;5.18;1.67;;;;;;;9.88;100.00;98338.47;694377;28;1157;-64
2023/03/14 00:11:39;;;;;;;5.72;1.83;;;;;;;9.83;100.00;98333.44;696599;28;1090;-63
2023/03/14 00:12:00;;;;;;;6.65;1.65;;;;;;;9.83;100.00;98343.03;691708;28;809;-64
2023/03/14 00:12:20;;;;;;;5.43;1.63;;;;;;;9.86;100.00;98343.75;693232;28;833;-63
2023/03/14 00:12:41;;;;;;;3.63;1.60;;;;;;;9.90;100.00;98336.69;695682;28;4479;-64
2023/03/14 00:13:02;;;;;;;3.85;1.67;;;;;;;9.92;100.00;98334.84;700032;28;895;-63
2023/03/14 00:13:22;;;;;;;4.50;1.70;;;;;;;10.01;100.00;98333.63;699499;28;1977;-63
2023/03/14 00:13:42;;;;;;;5.13;1.65;;;;;;;10.05;100.00;98327.38;698783;28;1083;-63
2023/03/14 00:14:03;;;;;;;4.50;1.70;;;;;;;10.04;100.00;98328.31;696907;28;1175;-63
2023/03/14 00:14:23;;;;;;;4.40;1.50;;;;;;;10.09;100.00;98328.94;697838;28;907;-64
2023/03/14 00:14:44;;;;;;;4.87;1.50;;;;;;;10.08;100.00;98329.88;697295;28;923;-64
2023/03/14 00:15:06;;;;;;;5.70;1.53;;;;;;;10.03;100.00;98332.66;695561;28;1289;-63
2023/03/14 00:15:27;;;;;;;5.53;1.50;;;;;;;10.04;100.00;98333.53;695445;28;927;-65
2023/03/14 00:15:47;;;;;;;4.70;1.45;;;;;;;10.03;100.00;98332.66;695383;28;4617;-63
2023/03/14 00:16:10;;;;;;;3.90;1.30;;;;;;;10.02;100.00;98333.59;698931;28;939;-64
2023/03/14 00:16:31;;;;;;;4.55;1.33;;;;;;;10.02;100.00;98335.31;698822;28;975;-63
2023/03/14 00:16:51;;;;;;;4.50;1.60;;;;;;;10.01;100.00;98333.63;701088;28;895;-64
2023/03/14 00:17:13;;;;;;;4.23;1.60;;;;;;;10.03;100.00;98339.63;702114;28;896;-64
2023/03/14 00:17:35;;;;;;;4.30;1.48;;;;;;;10.05;100.00;98340.41;699523;28;1127;-64
2023/03/14 00:17:55;;;;;;;4.90;1.50;;;;;;;10.12;100.00;98349.72;697970;28;999;-65
2023/03/14 00:18:16;;;;;;;4.85;1.60;;;;;;;10.12;100.00;98346.25;699679;28;1065;-64
2023/03/14 00:18:36;;;;;;;4.23;1.47;;;;;;;10.17;100.00;98350.38;699557;28;884;-63
2023/03/14 00:18:59;;;;;;;4.97;1.48;;;;;;;10.21;100.00;98345.88;698689;28;4289;-64
2023/03/14 00:19:19;;;;;;;4.28;1.50;;;;;;;10.29;100.00;98358.66;698932;28;1280;-63
2023/03/14 00:19:39;;;;;;;5.15;1.48;;;;;;;10.24;100.00;98358.81;697334;28;894;-63
2023/03/14 00:20:04;;;;;;;4.33;1.40;;;;;;;10.24;100.00;98361.44;695284;28;3377;-64
2023/03/14 00:20:24;;;;;;;4.20;1.48;;;;;;;10.23;100.00;98360.59;694495;28;1023;-64
2023/03/14 00:20:45;;;;;;;4.73;1.53;;;;;;;10.20;100.00;98355.50;692612;28;1056;-63
2023/03/14 00:21:07;;;;;;;4.30;1.50;;;;;;;10.17;100.00;98366.03;692952;28;1177;-64
2023/03/14 00:21:28;;;;;;;5.20;1.67;;;;;;;10.16;100.00;98373.94;692997;28;960;-63
2023/03/14 00:21:48;;;;;;;5.07;1.50;;;;;;;10.16;100.00;98369.59;695500;28;4319;-64
2023/03/14 00:22:09;;;;;;;4.00;1.40;;;;;;;10.17;100.00;98381.69;699968;28;1307;-64
2023/03/14 00:22:30;;;;;;;5.45;1.60;;;;;;;10.14;100.00;98371.38;699605;28;919;-63
2023/03/14 00:22:51;;;;;;;4.57;1.70;;;;;;;10.20;100.00;98380.72;698814;28;798;-63
2023/03/14 00:23:11;;;;;;;6.03;1.70;;;;;;;10.20;100.00;98375.50;698021;28;1026;-64
2023/03/14 00:23:34;;;;;;;6.77;1.70;;;;;;;10.21;100.00;98378.06;698769;28;1069;-64
2023/03/14 00:23:54;;;;;;;5.13;1.48;;;;;;;10.20;100.00;98381.59;699425;28;967;-64
2023/03/14 00:24:14;;;;;;;4.73;1.57;;;;;;;10.15;100.00;98385.28;698879;28;943;-64
2023/03/14 00:24:35;;;;;;;6.20;1.75;;;;;;;10.12;100.00;98388.88;697268;28;1519;-63
2023/03/14 00:24:55;;;;;;;5.50;1.70;;;;;;;10.15;100.00;98393.97;695546;28;4302;-64
2023/03/14 00:25:16;;;;;;;5.60;1.70;;;;;;;10.13;100.00;98397.56;696625;28;1034;-64
2023/03/14 00:25:36;;;;;;;6.17;1.90;;;;;;;10.13;100.00;98395.78;695931;28;972;-64
2023/03/14 00:26:01;;;;;;;5.90;1.85;;;;;;;10.07;100.00;98396.03;697293;28;813;-64
2023/03/14 00:26:21;;;;;;;4.25;1.40;;;;;;;10.06;100.00;98402.16;696988;28;1082;-64
2023/03/14 00:26:42;;;;;;;4.20;1.40;;;;;;;10.20;100.00;98399.88;699268;28;971;-63
2023/03/14 00:27:02;;;;;;;5.82;1.60;;;;;;;10.20;100.00;98399.88;700343;28;924;-64
2023/03/14 00:27:23;;;;;;;5.43;1.50;;;;;;;10.26;100.00;98397.91;698345;28;793;-63
2023/03/14 00:27:43;;;;;;;5.93;1.50;;;;;;;10.29;100.00;98398.66;699145;28;4462;-63
2023/03/14 00:28:03;;;;;;;5.82;1.52;;;;;;;10.30;100.00;98407.31;700055;28;1020;-64
2023/03/14 00:28:24;;;;;;;4.73;1.60;;;;;;;10.34;100.00;98394.13;692681;28;1162;-63
2023/03/14 00:28:44;;;;;;;4.03;1.60;;;;;;;10.31;100.00;98396.81;692557;28;1386;-65
2023/03/14 00:29:05;;;;;;;4.72;1.60;;;;;;;10.23;100.00;98399.75;693027;28;861;-63
2023/03/14 00:29:25;;;;;;;5.83;1.70;;;;;;;10.22;100.00;98403.28;692942;28;1319;-63
2023/03/14 00:29:46;;;;;;;6.47;1.70;;;;;;;10.19;100.00;98402.53;692564;28;1112;-64
2023/03/14 00:30:07;;;;;;;5.07;1.70;;;;;;;10.14;100.00;98402.72;692838;28;1180;-63
2023/03/14 00:30:28;;;;;;;6.07;1.70;;;;;;;10.14;100.00;98394.88;696543;28;955;-63
2023/03/14 00:30:49;;;;;;;5.00;1.80;;;;;;;10.12;100.00;98404.56;694600;28;4445;-64
2023/03/14 00:31:12;;;;;;;4.55;1.67;;;;;;;10.19;100.00;98398.16;695215;28;1289;-65
2023/03/14 00:31:35;;;;;;;5.00;1.65;;;;;;;10.26;100.00;98390.94;692604;28;1269;-64
2023/03/14 00:31:56;;;;;;;5.60;1.80;;;;;;;10.26;100.00;98393.56;690586;28;1162;-63
2023/03/14 00:32:16;;;;;;;5.17;1.53;;;;;;;10.36;100.00;98397.53;693532;28;932;-63
2023/03/14 00:32:37;;;;;;;5.25;1.55;;;;;;;10.38;100.00;98400.06;694836;28;1272;-63
2023/03/14 00:32:57;;;;;;;4.67;1.50;;;;;;;10.37;100.00;98399.22;692279;28;1310;-68
2023/03/14 00:33:17;;;;;;;5.35;1.65;;;;;;;10.38;100.00;98397.47;693448;28;1965;-65
2023/03/14 00:33:38;;;;;;;5.17;1.60;;;;;;;10.42;100.00;98393.81;693729;28;912;-63
2023/03/14 00:33:58;;;;;;;4.40;1.47;;;;;;;10.46;100.00;98397.16;694619;28;4272;-63
2023/03/14 00:34:18;;;;;;;4.30;1.50;;;;;;;10.54;100.00;98389.88;697169;28;1166;-63
2023/03/14 00:34:39;;;;;;;3.60;1.30;;;;;;;10.55;100.00;98392.41;696752;28;979;-62
2023/03/14 00:35:00;;;;;;;3.78;1.45;;;;;;;10.51;100.00;98395.22;699544;28;895;-63
2023/03/14 00:35:21;;;;;;;4.68;1.60;;;;;;;10.47;100.00;98397.09;698120;28;1291;-63
2023/03/14 00:35:41;;;;;;;5.55;1.60;;;;;;;10.49;100.00;98392.66;698045;28;994;-63
2023/03/14 00:36:05;;;;;;;6.50;1.70;;;;;;;10.43;100.00;98392.91;697986;28;853;-64
2023/03/14 00:36:25;;;;;;;6.15;1.58;;;;;;;10.37;100.00;98395.75;690527;28;1286;-64
2023/03/14 00:36:46;;;;;;;4.57;1.73;;;;;;;10.29;100.00;98397.81;692826;28;4463;-64
2023/03/14 00:37:07;;;;;;;4.75;1.60;;;;;;;10.38;100.00;98398.31;694478;28;884;-63
2023/03/14 00:37:27;;;;;;;5.50;1.60;;;;;;;10.34;100.00;98399.38;693336;28;1035;-63
2023/03/14 00:37:48;;;;;;;6.22;1.70;;;;;;;10.41;100.00;98399.94;695085;28;912;-62
2023/03/14 00:38:08;;;;;;;6.27;1.93;;;;;;;10.34;100.00;98398.47;693461;28;1108;-63
2023/03/14 00:38:31;;;;;;;5.10;1.80;;;;;;;10.36;100.00;98387.06;699359;28;1053;-64
2023/03/14 00:38:52;;;;;;;5.70;1.60;;;;;;;10.44;100.00;98393.75;700156;28;5404;-67
2023/03/14 00:39:12;;;;;;;5.73;1.60;;;;;;;10.41;100.00;98386.88;698369;28;1268;-62
2023/03/14 00:39:33;;;;;;;5.17;1.53;;;;;;;10.47;100.00;98389.25;695401;28;1180;-63
2023/03/14 00:39:53;;;;;;;4.93;1.60;;;;;;;10.47;100.00;98383.19;695092;28;4368;-62
2023/03/14 00:40:13;;;;;;;4.63;1.50;;;;;;;10.49;100.00;98379.59;695694;28;803;-63
2023/03/14 00:40:34;;;;;;;5.77;1.50;;;;;;;10.50;100.00;98376.06;695157;28;949;-63
2023/03/14 00:40:54;;;;;;;5.67;1.77;;;;;;;10.49;100.00;98381.34;695710;28;1043;-63
2023/03/14 00:41:17;;;;;;;6.33;1.67;;;;;;;10.48;100.00;98385.75;695640;28;805;-64
2023/03/14 00:41:37;;;;;;;6.15;1.70;;;;;;;10.50;100.00;98377.84;697267;28;1027;-65
2023/03/14 00:41:58;;;;;;;5.68;1.67;;;;;;;10.44;100.00;98384.16;697822;28;863;-64
2023/03/14 00:42:18;;;;;;;5.80;1.60;;;;;;;10.39;100.00;98383.50;699303;28;820;-63
2023/03/14 00:42:39;;;;;;;8.03;1.80;;;;;;;10.39;100.00;98381.72;695973;28;933;-63
2023/03/14 00:43:00;;;;;;;6.88;1.80;;;;;;;10.36;100.00;98373.19;697591;28;6071;-63
2023/03/14 00:43:21;;;;;;;6.30;1.70;;;;;;;10.38;100.00;98376.56;694716;28;1335;-63
2023/03/14 00:43:42;;;;;;;5.72;1.55;;;;;;;10.45;100.00;98379.78;694045;28;1468;-64
2023/03/14 00:44:03;;;;;;;4.90;1.50;;;;;;;10.40;100.00;98382.59;693900;28;1031;-63
2023/03/14 00:44:23;;;;;;;5.33;1.50;;;;;;;10.37;100.00;98372.25;695873;28;995;-64
2023/03/14 00:44:44;;;;;;;6.45;1.67;;;;;;;10.43;100.00;98373.78;695244;28;1059;-64
2023/03/14 00:45:04;;;;;;;4.83;1.50;;;;;;;10.42;100.00;98380.75;695958;28;1230;-63
2023/03/14 00:45:27;;;;;;;4.32;1.42;;;;;;;10.44;100.00;98372.84;695434;28;1310;-63
2023/03/14 00:45:49;;;;;;;5.33;1.50;;;;;;;10.43;100.00;98377.25;697103;28;4282;-64
2023/03/14 00:46:10;;;;;;;6.63;1.80;;;;;;;10.40;100.00;98374.75;697838;28;1003;-64
2023/03/14 00:46:30;;;;;;;5.85;1.60;;;;;;;10.43;100.00;98373.78;696787;28;923;-64
2023/03/14 00:46:51;;;;;;;7.10;1.63;;;;;;;10.41;100.00;98373.81;698287;28;757;-63
2023/03/14 00:47:11;;;;;;;7.37;1.70;;;;;;;10.37;100.00;98373.13;699882;28;930;-64
2023/03/14 00:47:31;;;;;;;5.70;1.70;;;;;;;10.41;100.00;98371.22;699895;28;1189;-63
2023/03/14 00:47:52;;;;;;;5.27;1.57;;;;;;;10.37;100.00;98377.47;700500;28;1011;-63
2023/03/14 00:48:13;;;;;;;6.70;1.60;;;;;;;10.43;100.00;98366.78;699956;28;1252;-63
2023/03/14 00:48:34;;;;;;;4.70;1.45;;;;;;;10.49;100.00;98369.13;696320;28;1476;-64
2023/03/14 00:48:55;;;;;;;4.97;1.42;;;;;;;10.47;100.00;98364.91;695316;28;4304;-64
2023/03/14 00:49:15;;;;;;;7.22;1.70;;;;;;;10.44;100.00;98368.50;696509;28;1625;-64
2023/03/14 00:49:37;;;;;;;5.65;1.60;;;;;;;10.52;100.00;98374.25;697122;28;1904;-63
2023/03/14 00:49:58;;;;;;;5.20;1.60;;;;;;;10.53;100.00;98375.09;698329;28;864;-63
2023/03/14 00:50:18;;;;;;;5.18;1.60;;;;;;;10.44;100.00;98368.50;699059;28;982;-63
2023/03/14 00:50:39;;;;;;;6.03;1.80;;;;;;;10.42;100.00;98369.47;700180;28;1321;-62
2023/03/14 00:51:04;;;;;;;6.78;1.77;;;;;;;10.36;100.00;98375.78;698214;28;978;-62
2023/03/14 00:51:24;;;;;;;5.65;1.80;;;;;;;10.37;100.00;98374.84;702722;28;879;-63
2023/03/14 00:51:48;;;;;;;6.27;1.97;;;;;;;10.36;100.00;98367.97;700986;28;4309;-63
2023/03/14 00:52:09;;;;;;;5.57;1.65;;;;;;;10.31;100.00;98372.47;703438;28;1142;-64
2023/03/14 00:52:30;;;;;;;5.07;1.77;;;;;;;10.28;100.00;98367.38;699798;28;931;-63
2023/03/14 00:52:50;;;;;;;5.00;1.70;;;;;;;10.30;100.00;98376.00;699455;28;1297;-64
2023/03/14 00:53:11;;;;;;;4.32;1.52;;;;;;;10.34;100.00;98372.34;698272;28;1293;-64
2023/03/14 00:53:34;;;;;;;4.87;1.50;;;;;;;10.37;100.00;98367.03;698585;28;2025;-63
2023/03/14 00:53:54;;;;;;;4.50;1.40;;;;;;;10.31;100.00;98375.09;698614;28;955;-62
2023/03/14 00:54:15;;;;;;;4.33;1.40;;;;;;;10.27;100.00;98365.69;699116;28;840;-63
2023/03/14 00:54:35;;;;;;;5.97;1.53;;;;;;;10.27;100.00;98368.28;698143;28;1321;-63
2023/03/14 00:54:56;;;;;;;5.40;1.63;;;;;;;10.26;100.00;98369.19;695706;28;4236;-66
2023/03/14 00:55:16;;;;;;;5.32;1.60;;;;;;;10.28;100.00;98372.59;698299;28;864;-64
2023/03/14 00:55:38;;;;;;;5.53;1.50;;;;;;;10.31;100.00;98364.63;699171;28;968;-64
2023/03/14 00:56:03;;;;;;;5.75;1.48;;;;;;;10.26;100.00;98372.66;695638;28;784;-63
2023/03/14 00:56:23;;;;;;;7.00;1.90;;;;;;;10.28;100.00;98377.81;693693;28;1155;-63
2023/03/14 00:56:43;;;;;;;7.53;1.80;;;;;;;10.25;100.00;98376.19;693161;28;1176;-64
2023/03/14 00:57:04;;;;;;;6.03;1.83;;;;;;;10.28;100.00;98386.50;693371;28;896;-63
2023/03/14 00:57:24;;;;;;;7.20;1.70;;;;;;;10.27;100.00;98386.56;690237;28;1462;-64
2023/03/14 00:57:45;;;;;;;6.25;1.70;;;;;;;10.22;100.00;98395.44;692577;28;4442;-64
2023/03/14 00:58:06;;;;;;;5.78;1.65;;;;;;;10.19;100.00;98412.97;687505;28;1174;-64
2023/03/14 00:58:26;;;;;;;5.80;1.60;;;;;;;10.13;100.00;98411.44;688353;28;869;-65
2023/03/14 00:58:46;;;;;;;6.40;1.50;;;;;;;10.28;100.00;98422.22;691172;28;975;-65
2023/03/14 00:59:07;;;;;;;4.05;1.45;;;;;;;10.30;100.00;98425.59;691098;28;1331;-66
2023/03/14 00:59:28;;;;;;;5.97;1.60;;;;;;;10.29;100.00;98432.59;693181;28;1164;-66
2023/03/14 00:59:48;;;;;;;6.55;1.70;;;;;;;10.30;100.00;98438.66;696733;28;1110;-64
2023/03/14 01:00:11;;;;;;;5.27;1.70;;;;;;;10.26;100.00;98437.97;693096;28;1221;-63
2023/03/14 01:00:32;;;;;;;5.22;1.60;;;;;;;10.21;100.00;98445.94;694214;28;1175;-64
2023/03/14 01:00:53;;;;;;;5.78;1.80;;;;;;;10.20;100.00;98444.28;696188;28;4349;-66
2023/03/14 01:01:17;;;;;;;6.80;1.83;;;;;;;10.17;100.00;98454.81;693099;28;1396;-66
2023/03/14 01:01:39;;;;;;;5.40;1.73;;;;;;;10.17;100.00;98454.81;697205;28;936;-65
2023/03/14 01:02:00;;;;;;;6.00;1.80;;;;;;;10.15;100.00;98459.25;692871;28;858;-62
2023/03/14 01:02:20;;;;;;;5.57;1.60;;;;;;;10.10;100.00;98482.06;693383;28;978;-67
2023/03/14 01:02:43;;;;;;;6.35;1.60;;;;;;;10.00;100.00;98468.50;693176;28;1253;-61
2023/03/14 01:03:04;;;;;;;3.90;1.27;;;;;;;9.95;100.00;98477.44;692625;28;1163;-64
2023/03/14 01:03:25;;;;;;;3.75;1.40;;;;;;;9.81;100.00;98472.72;690559;28;1412;-66
2023/03/14 01:03:45;;;;;;;4.33;1.20;;;;;;;9.75;100.00;98459.88;687833;28;4385;-66
2023/03/14 01:04:06;;;;;;;5.03;1.08;;;;;;;9.56;100.00;98472.75;690762;28;901;-63
2023/03/14 01:04:26;;;;;;;4.20;1.00;;;;;;;9.42;100.00;98466.25;691101;28;920;-66
2023/03/14 01:04:49;;;;;;;5.72;1.20;;;;;;;9.34;100.00;98450.03;693883;28;1074;-66
2023/03/14 01:05:12;;;;;;;3.80;1.07;;;;;;;9.27;100.00;98466.81;694771;28;1492;-59
2023/03/14 01:05:33;;;;;;;5.22;1.20;;;;;;;9.13;100.00;98456.84;694256;28;1210;-62
2023/03/14 01:05:53;;;;;;;4.70;1.10;;;;;;;8.99;100.00;98459.94;698838;28;951;-63
2023/03/14 01:06:22;;;;;;;4.32;1.20;;;;;;;8.96;100.00;98462.63;695687;28;1643;-60
2023/03/14 01:06:42;;;;;;;4.63;1.00;;;;;;;8.85;100.00;98457.78;692685;28;4301;-62
2023/03/14 01:07:04;;;;;;;4.40;0.95;;;;;;;8.85;100.00;98453.41;693410;28;872;-62
2023/03/14 01:07:25;;;;;;;3.75;0.95;;;;;;;8.82;100.00;98456.13;692248;28;888;-62
2023/03/14 01:07:46;;;;;;;3.17;1.10;;;;;;;8.77;100.00;98457.19;689966;28;1318;-61
2023/03/14 01:08:07;;;;;;;4.50;1.10;;;;;;;8.79;100.00;98439.72;689183;28;1008;-65
2023/03/14 01:08:28;;;;;;;3.10;1.10;;;;;;;8.77;100.00;98459.78;688373;28;918;-63
2023/03/14 01:08:48;;;;;;;3.97;1.00;;;;;;;8.73;100.00;98451.22;691913;28;940;-62
2023/03/14 01:09:09;;;;;;;5.15;1.50;;;;;;;8.75;100.00;98448.53;694466;28;1101;-63
2023/03/14 01:09:29;;;;;;;4.30;1.00;;;;;;;8.71;100.00;98445.22;696910;28;948;-63
2023/03/14 01:09:53;;;;;;;4.60;1.20;;;;;;;8.65;100.00;98443.66;699017;28;4764;-63
2023/03/14 01:10:14;;;;;;;3.83;0.90;;;;;;;8.58;100.00;98452.53;699600;28;888;-63
2023/03/14 01:10:38;;;;;;;3.73;1.00;;;;;;;8.52;100.00;98453.59;699372;28;915;-63
2023/03/14 01:10:59;;;;;;;4.75;1.30;;;;;;;8.53;100.00;98438.84;700196;28;1559;-64
2023/03/14 01:11:28;;;;;;;3.90;1.13;;;;;;;8.42;100.00;98441.75;698227;28;888;-62
2023/03/14 01:11:48;;;;;;;3.95;0.88;;;;;;;8.47;100.00;98433.81;694934;28;971;-64
2023/03/14 01:12:09;;;;;;;4.40;0.93;;;;;;;8.40;100.00;98440.09;695809;28;924;-62
2023/03/14 01:12:29;;;;;;;4.20;0.97;;;;;;;8.49;100.00;98438.06;697429;28;1277;-64
2023/03/14 01:12:50;;;;;;;4.90;1.10;;;;;;;8.50;100.00;98431.97;697639;28;4714;-64
2023/03/14 01:13:10;;;;;;;3.47;0.98;;;;;;;8.44;100.00;98432.13;696995;28;1169;-63
2023/03/14 01:13:30;;;;;;;4.67;0.97;;;;;;;8.36;100.00;98439.31;698006;28;1906;-63
2023/03/14 01:13:51;;;;;;;4.00;1.00;;;;;;;8.38;100.00;98434.06;700177;28;864;-62
2023/03/14 01:14:12;;;;;;;4.07;0.90;;;;;;;8.30;100.00;98442.97;699827;28;1167;-62
2023/03/14 01:14:33;;;;;;;5.10;0.90;;;;;;;8.28;100.00;98438.72;700099;28;924;-62
2023/03/14 01:14:53;;;;;;;5.03;1.10;;;;;;;8.28;100.00;98433.50;697811;28;1018;-62
2023/03/14 01:15:14;;;;;;;4.20;0.90;;;;;;;8.31;100.00;98436.03;700389;28;816;-62
2023/03/14 01:15:35;;;;;;;3.73;0.90;;;;;;;8.30;100.00;98439.53;697390;28;1156;-62
2023/03/14 01:16:01;;;;;;;5.15;1.33;;;;;;;8.24;100.00;98437.09;693808;28;4630;-62
2023/03/14 01:16:24;;;;;;;5.82;1.20;;;;;;;8.20;100.00;98438.97;693850;28;3448;-62
2023/03/14 01:16:44;;;;;;;4.78;0.95;;;;;;;8.17;100.00;98436.47;695749;28;953;-62
2023/03/14 01:17:04;;;;;;;3.70;0.90;;;;;;;8.12;100.00;98436.59;695753;28;888;-62
2023/03/14 01:17:25;;;;;;;3.27;0.90;;;;;;;8.17;100.00;98433.84;697109;28;897;-62
2023/03/14 01:17:45;;;;;;;3.30;0.93;;;;;;;8.15;100.00;98433.88;699268;28;1098;-62
2023/03/14 01:18:06;;;;;;;3.42;1.10;;;;;;;8.10;100.00;98432.31;700526;28;824;-61
2023/03/14 01:18:26;;;;;;;4.67;1.20;;;;;;;8.04;100.00;98430.75;700785;28;998;-62
2023/03/14 01:18:47;;;;;;;6.05;1.20;;;;;;;8.07;100.00;98435.03;695428;28;4470;-64
2023/03/14 01:19:09;;;;;;;4.28;1.00;;;;;;;8.01;100.00;98425.66;693057;28;1141;-61
2023/03/14 01:19:31;;;;;;;3.95;1.10;;;;;;;7.99;100.00;98425.69;690358;28;2083;-61
2023/03/14 01:19:53;;;;;;;3.85;1.00;;;;;;;8.07;100.00;98435.88;692871;28;1466;-61
2023/03/14 01:20:15;;;;;;;4.35;1.08;;;;;;;8.05;100.00;98429.88;690578;28;1379;-61
2023/03/14 01:20:37;;;;;;;4.93;1.00;;;;;;;8.07;100.00;98433.28;691491;28;1085;-61
2023/03/14 01:20:57;;;;;;;5.13;1.08;;;;;;;8.14;100.00;98432.19;690170;28;1670;-62
2023/03/14 01:21:29;;;;;;;4.65;1.20;;;;;;;8.17;100.00;98436.47;688137;28;1149;-62
2023/03/14 01:21:49;;;;;;;7.07;1.20;;;;;;;8.17;100.00;98432.09;690961;28;4437;-64
2023/03/14 01:22:10;;;;;;;4.70;1.10;;;;;;;8.15;100.00;98435.63;695560;28;777;-61
2023/03/14 01:22:32;;;;;;;5.72;1.00;;;;;;;8.01;100.00;98439.50;697987;28;981;-62
2023/03/14 01:22:52;;;;;;;5.20;1.00;;;;;;;8.09;100.00;98438.44;698984;28;998;-61
2023/03/14 01:23:12;;;;;;;3.85;1.00;;;;;;;8.02;100.00;98442.97;700037;28;1049;-61
2023/03/14 01:23:33;;;;;;;4.60;1.10;;;;;;;8.01;100.00;98439.50;698016;28;1269;-62
2023/03/14 01:23:55;;;;;;;4.13;1.10;;;;;;;8.11;100.00;98437.50;698351;28;927;-62
2023/03/14 01:24:16;;;;;;;4.05;1.10;;;;;;;8.09;100.00;98428.88;697710;28;976;-61
2023/03/14 01:24:37;;;;;;;3.10;1.00;;;;;;;8.15;100.00;98433.88;696596;28;1285;-64
2023/03/14 01:24:57;;;;;;;3.63;0.90;;;;;;;8.08;100.00;98437.56;696500;28;4558;-61
2023/03/14 01:25:18;;;;;;;5.47;1.10;;;;;;;8.11;100.00;98427.09;698687;28;983;-63
2023/03/14 01:25:41;;;;;;;5.18;1.00;;;;;;;8.09;100.00;98430.63;699251;28;1270;-63
2023/03/14 01:26:02;;;;;;;5.95;1.20;;;;;;;8.16;100.00;98425.19;700333;28;1018;-63
2023/03/14 01:26:25;;;;;;;5.30;1.45;;;;;;;8.18;100.00;98418.19;701319;28;800;-62
2023/03/14 01:26:45;;;;;;;5.53;1.83;;;;;;;8.12;100.00;98420.97;698574;28;1222;-62
2023/03/14 01:27:06;;;;;;;5.38;1.08;;;;;;;8.06;100.00;98415.97;699406;28;1283;-62
2023/03/14 01:27:26;;;;;;;5.73;1.10;;;;;;;8.02;100.00;98407.38;698535;28;880;-62
2023/03/14 01:27:47;;;;;;;3.63;1.10;;;;;;;7.99;100.00;98407.50;692394;28;4712;-63
2023/03/14 01:28:07;;;;;;;4.40;1.13;;;;;;;8.05;100.00;98411.66;693309;28;1432;-62
2023/03/14 01:28:29;;;;;;;5.82;1.20;;;;;;;8.00;100.00;98410.94;695294;28;1255;-62
2023/03/14 01:28:51;;;;;;;5.67;1.10;;;;;;;7.94;100.00;98406.78;692408;28;1288;-62
2023/03/14 01:29:13;;;;;;;4.90;1.00;;;;;;;7.91;100.00;98406.88;691691;28;1343;-61
2023/03/14 01:29:34;;;;;;;4.38;1.00;;;;;;;7.93;100.00;98417.22;690122;28;1210;-63
2023/03/14 01:29:54;;;;;;;3.67;1.00;;;;;;;7.89;100.00;98410.41;691621;28;803;-62
2023/03/14 01:30:15;;;;;;;6.13;1.17;;;;;;;7.87;100.00;98417.41;689959;28;1220;-61
2023/03/14 01:30:35;;;;;;;6.03;1.20;;;;;;;7.88;100.00;98413.91;693429;28;1319;-60
2023/03/14 01:30:56;;;;;;;3.97;1.20;;;;;;;7.91;100.00;98411.22;695760;28;4511;-60
2023/03/14 01:31:17;;;;;;;5.57;1.20;;;;;;;7.90;100.00;98412.13;695156;28;1254;-60
2023/03/14 01:31:38;;;;;;;6.43;1.05;;;;;;;7.87;100.00;98410.47;693408;28;885;-60
2023/03/14 01:31:58;;;;;;;4.18;1.10;;;;;;;7.88;100.00;98406.09;692482;28;1358;-60
2023/03/14 01:32:19;;;;;;;4.15;1.15;;;;;;;7.92;100.00;98407.72;691752;28;1306;-61
2023/03/14 01:32:40;;;;;;;4.10;0.90;;;;;;;7.94;100.00;98409.38;692058;28;955;-61
2023/03/14 01:33:00;;;;;;;5.25;1.00;;;;;;;7.93;100.00;98402.44;687345;28;1284;-61
2023/03/14 01:33:21;;;;;;;5.20;1.15;;;;;;;7.97;100.00;98398.03;686438;28;1989;-62
2023/03/14 01:33:41;;;;;;;4.23;0.90;;;;;;;7.97;100.00;98401.47;686190;28;4760;-61
2023/03/14 01:34:03;;;;;;;4.03;0.98;;;;;;;8.01;100.00;98400.47;688493;28;1411;-61
2023/03/14 01:34:23;;;;;;;4.43;1.20;;;;;;;8.01;100.00;98400.47;689815;28;989;-60
2023/03/14 01:34:44;;;;;;;5.30;1.00;;;;;;;8.01;100.00;98395.28;690935;28;1295;-61
2023/03/14 01:35:05;;;;;;;4.20;0.90;;;;;;;7.98;100.00;98387.56;694858;28;1180;-61
2023/03/14 01:35:26;;;;;;;4.78;1.00;;;;;;;8.01;100.00;98389.22;697622;28;1471;-60
2023/03/14 01:35:50;;;;;;;5.15;1.10;;;;;;;8.10;100.00;98386.34;697407;28;1708;-61
2023/03/14 01:36:11;;;;;;;4.13;1.10;;;;;;;8.13;100.00;98382.81;696112;28;1253;-61
2023/03/14 01:36:32;;;;;;;6.07;1.20;;;;;;;8.10;100.00;98382.88;696065;28;1408;-60
2023/03/14 01:36:54;;;;;;;6.20;1.00;;;;;;;8.04;100.00;98383.91;695763;28;4301;-60
2023/03/14 01:37:15;;;;;;;5.47;1.10;;;;;;;8.05;100.00;98380.44;693289;28;1483;-61
2023/03/14 01:37:35;;;;;;;5.63;1.10;;;;;;;8.05;100.00;98379.59;688861;28;1359;-60
2023/03/14 01:37:56;;;;;;;4.20;0.88;;;;;;;7.99;100.00;98380.63;690038;28;1477;-60
2023/03/14 01:38:17;;;;;;;4.82;1.20;;;;;;;7.92;100.00;98379.09;694494;28;1483;-60
2023/03/14 01:38:39;;;;;;;5.63;1.10;;;;;;;7.92;100.00;98379.97;696956;28;1373;-61
2023/03/14 01:39:01;;;;;;;5.10;1.02;;;;;;;7.91;100.00;98377.41;693653;28;2549;-60
2023/03/14 01:39:22;;;;;;;6.00;1.10;;;;;;;7.88;100.00;98382.69;693374;28;1192;-60
2023/03/14 01:39:42;;;;;;;5.57;1.20;;;;;;;7.92;100.00;98381.69;692298;28;4460;-61
2023/03/14 01:40:05;;;;;;;6.13;1.10;;;;;;;7.97;100.00;98379.81;693144;28;1129;-61
2023/03/14 01:40:25;;;;;;;5.10;1.00;;;;;;;8.00;100.00;98379.72;694265;28;825;-60
2023/03/14 01:40:45;;;;;;;5.50;1.10;;;;;;;8.03;100.00;98377.03;693437;28;1228;-61
2023/03/14 01:41:11;;;;;;;5.55;1.10;;;;;;;7.98;100.00;98381.53;695209;28;1494;-60
2023/03/14 01:41:32;;;;;;;5.10;1.20;;;;;;;7.96;100.00;98380.69;694328;28;1048;-61
2023/03/14 01:41:53;;;;;;;4.43;1.00;;;;;;;7.98;100.00;98390.16;689524;28;1328;-61